sensor_id;sensor_type;location;lat;lon;timestamp;pressure;altitude;pressure_sealevel;temperature;humidity
38780;BME280;29273;49.962;9.768;2023-03-04T00:02:17;100460.19;;;4.24;51.69
38780;BME280;29273;49.962;9.768;2023-03-04T00:04:43;100456.91;;;4.22;51.90
38780;BME280;29273;49.962;9.768;2023-03-04T00:07:08;100455.09;;;4.22;52.01
38780;BME280;29273;49.962;9.768;2023-03-04T00:09:34;100457.72;;;4.22;52.31
38780;BME280;29273;49.962;9.768;2023-03-04T00:12:00;100456.75;;;4.23;52.24
38780;BME280;29273;49.962;9.768;2023-03-04T00:14:26;100461.16;;;4.23;52.56
38780;BME280;29273;49.962;9.768;2023-03-04T00:16:51;100451.50;;;4.23;52.42
38780;BME280;29273;49.962;9.768;2023-03-04T00:19:16;100456.47;;;4.26;52.63
38780;BME280;29273;49.962;9.768;2023-03-04T00:21:42;100461.00;;;4.24;52.65
38780;BME280;29273;49.962;9.768;2023-03-04T00:24:08;100461.00;;;4.24;52.67
38780;BME280;29273;49.962;9.768;2023-03-04T00:26:33;100458.38;;;4.24;52.67
38780;BME280;29273;49.962;9.768;2023-03-04T00:28:58;100468.88;;;4.24;52.75
38780;BME280;29273;49.962;9.768;2023-03-04T00:31:24;100460.19;;;4.24;52.71
38780;BME280;29273;49.962;9.768;2023-03-04T00:33:50;100458.53;;;4.23;52.84
38780;BME280;29273;49.962;9.768;2023-03-04T00:36:16;100468.88;;;4.24;52.99
38780;BME280;29273;49.962;9.768;2023-03-04T00:38:41;100458.38;;;4.24;52.97
38780;BME280;29273;49.962;9.768;2023-03-04T00:41:07;100456.63;;;4.25;52.97
38780;BME280;29273;49.962;9.768;2023-03-04T00:43:32;100454.81;;;4.25;53.12
38780;BME280;29273;49.962;9.768;2023-03-04T00:45:58;100455.63;;;4.26;53.19
38780;BME280;29273;49.962;9.768;2023-03-04T00:48:24;100455.47;;;4.28;53.28
38780;BME280;29273;49.962;9.768;2023-03-04T00:50:49;100454.53;;;4.29;53.41
38780;BME280;29273;49.962;9.768;2023-03-04T00:53:17;100461.25;;;4.31;53.26
38780;BME280;29273;49.962;9.768;2023-03-04T00:55:42;100453.53;;;4.30;53.37
38780;BME280;29273;49.962;9.768;2023-03-04T00:58:08;100457.81;;;4.31;53.59
38780;BME280;29273;49.962;9.768;2023-03-04T01:00:33;100463.72;;;4.33;53.58
38780;BME280;29273;49.962;9.768;2023-03-04T01:02:59;100455.88;;;4.33;53.51
38780;BME280;29273;49.962;9.768;2023-03-04T01:05:24;100453.09;;;4.34;53.56
38780;BME280;29273;49.962;9.768;2023-03-04T01:07:50;100449.38;;;4.37;53.74
38780;BME280;29273;49.962;9.768;2023-03-04T01:10:15;100442.19;;;4.39;53.73
38780;BME280;29273;49.962;9.768;2023-03-04T01:12:41;100453.34;;;4.41;53.64
38780;BME280;29273;49.962;9.768;2023-03-04T01:15:12;100450.16;;;4.47;53.60
38780;BME280;29273;49.962;9.768;2023-03-04T01:17:38;100453.72;;;4.46;53.69
38780;BME280;29273;49.962;9.768;2023-03-04T01:20:04;100444.75;;;4.49;53.49
38780;BME280;29273;49.962;9.768;2023-03-04T01:22:30;100442.81;;;4.51;53.72
38780;BME280;29273;49.962;9.768;2023-03-04T01:24:55;100440.03;;;4.52;53.76
38780;BME280;29273;49.962;9.768;2023-03-04T01:27:21;100443.19;;;4.56;53.72
38780;BME280;29273;49.962;9.768;2023-03-04T01:29:46;100439.31;;;4.60;53.68
38780;BME280;29273;49.962;9.768;2023-03-04T01:32:12;100435.56;;;4.62;53.70
38780;BME280;29273;49.962;9.768;2023-03-04T01:34:37;100431.00;;;4.64;53.90
38780;BME280;29273;49.962;9.768;2023-03-04T01:37:03;100434.97;;;4.69;53.72
38780;BME280;29273;49.962;9.768;2023-03-04T01:39:28;100434.69;;;4.72;53.73
38780;BME280;29273;49.962;9.768;2023-03-04T01:41:54;100437.16;;;4.73;53.76
38780;BME280;29273;49.962;9.768;2023-03-04T01:44:20;100427.34;;;4.75;53.83
38780;BME280;29273;49.962;9.768;2023-03-04T01:46:49;100427.56;;;4.82;53.86
38780;BME280;29273;49.962;9.768;2023-03-04T01:49:16;100424.81;;;4.84;53.89
38780;BME280;29273;49.962;9.768;2023-03-04T01:51:43;100424.50;;;4.87;53.82
38780;BME280;29273;49.962;9.768;2023-03-04T01:54:10;100421.59;;;4.90;53.76
38780;BME280;29273;49.962;9.768;2023-03-04T01:56:37;100413.94;;;4.96;53.92
38780;BME280;29273;49.962;9.768;2023-03-04T02:01:43;100413.03;;;5.06;53.85
38780;BME280;29273;49.962;9.768;2023-03-04T02:04:08;100403.34;;;5.06;54.05
38780;BME280;29273;49.962;9.768;2023-03-04T02:06:36;100407.03;;;5.13;53.98
38780;BME280;29273;49.962;9.768;2023-03-04T02:09:03;100397.19;;;5.15;54.03
38780;BME280;29273;49.962;9.768;2023-03-04T02:11:28;100397.72;;;5.19;53.87
38780;BME280;29273;49.962;9.768;2023-03-04T02:13:54;100390.34;;;5.23;53.89
38780;BME280;29273;49.962;9.768;2023-03-04T02:16:20;100392.66;;;5.26;53.70
38780;BME280;29273;49.962;9.768;2023-03-04T02:18:45;100394.19;;;5.28;53.66
38780;BME280;29273;49.962;9.768;2023-03-04T02:21:24;100383.88;;;5.35;53.72
38780;BME280;29273;49.962;9.768;2023-03-04T02:24:10;100379.31;;;5.37;53.48
38780;BME280;29273;49.962;9.768;2023-03-04T02:26:40;100378.50;;;5.36;53.60
38780;BME280;29273;49.962;9.768;2023-03-04T02:29:09;100376.06;;;5.43;53.57
38780;BME280;29273;49.962;9.768;2023-03-04T02:31:38;100368.03;;;5.45;53.59
38780;BME280;29273;49.962;9.768;2023-03-04T02:34:09;100364.25;;;5.47;53.45
38780;BME280;29273;49.962;9.768;2023-03-04T02:36:36;100368.69;;;5.47;53.28
38780;BME280;29273;49.962;9.768;2023-03-04T02:39:11;100368.09;;;5.53;53.19
38780;BME280;29273;49.962;9.768;2023-03-04T02:41:37;100365.78;;;5.50;53.27
38780;BME280;29273;49.962;9.768;2023-03-04T02:44:14;100360.88;;;5.55;52.96
38780;BME280;29273;49.962;9.768;2023-03-04T02:46:40;100361.19;;;5.52;52.95
38780;BME280;29273;49.962;9.768;2023-03-04T02:49:07;100355.75;;;5.53;52.82
38780;BME280;29273;49.962;9.768;2023-03-04T02:51:32;100358.25;;;5.55;52.79
38780;BME280;29273;49.962;9.768;2023-03-04T02:53:58;100364.00;;;5.59;52.80
38780;BME280;29273;49.962;9.768;2023-03-04T02:56:23;100358.75;;;5.59;52.85
38780;BME280;29273;49.962;9.768;2023-03-04T02:58:49;100357.59;;;5.61;52.68
38780;BME280;29273;49.962;9.768;2023-03-04T03:01:14;100354.00;;;5.62;52.66
38780;BME280;29273;49.962;9.768;2023-03-04T03:03:40;100354.66;;;5.64;52.65
38780;BME280;29273;49.962;9.768;2023-03-04T03:06:06;100361.44;;;5.67;52.33
38780;BME280;29273;49.962;9.768;2023-03-04T03:08:32;100354.34;;;5.67;52.29
38780;BME280;29273;49.962;9.768;2023-03-04T03:10:59;100357.66;;;5.69;52.28
38780;BME280;29273;49.962;9.768;2023-03-04T03:13:25;100354.06;;;5.70;52.49
38780;BME280;29273;49.962;9.768;2023-03-04T03:15:51;100359.97;;;5.72;52.42
38780;BME280;29273;49.962;9.768;2023-03-04T03:18:16;100351.94;;;5.74;52.43
38780;BME280;29273;49.962;9.768;2023-03-04T03:20:42;100355.06;;;5.78;52.61
38780;BME280;29273;49.962;9.768;2023-03-04T03:23:07;100348.03;;;5.78;52.55
38780;BME280;29273;49.962;9.768;2023-03-04T03:25:34;100349.50;;;5.81;52.63
38780;BME280;29273;49.962;9.768;2023-03-04T03:27:59;100343.28;;;5.82;52.50
38780;BME280;29273;49.962;9.768;2023-03-04T03:30:25;100349.19;;;5.84;52.50
38780;BME280;29273;49.962;9.768;2023-03-04T03:32:50;100347.38;;;5.84;52.45
38780;BME280;29273;49.962;9.768;2023-03-04T03:35:16;100336.69;;;5.86;52.29
38780;BME280;29273;49.962;9.768;2023-03-04T03:37:42;100341.00;;;5.87;52.24
38780;BME280;29273;49.962;9.768;2023-03-04T03:40:08;100343.63;;;5.87;52.30
38780;BME280;29273;49.962;9.768;2023-03-04T03:42:33;100356.59;;;5.88;52.34
38780;BME280;29273;49.962;9.768;2023-03-04T03:44:59;100352.31;;;5.87;52.36
38780;BME280;29273;49.962;9.768;2023-03-04T03:47:24;100346.91;;;5.89;52.46
38780;BME280;29273;49.962;9.768;2023-03-04T03:49:50;100339.84;;;5.89;52.25
38780;BME280;29273;49.962;9.768;2023-03-04T03:52:15;100340.69;;;5.90;52.17
38780;BME280;29273;49.962;9.768;2023-03-04T03:54:41;100340.84;;;5.88;52.00
38780;BME280;29273;49.962;9.768;2023-03-04T03:57:07;100344.28;;;5.89;52.20
38780;BME280;29273;49.962;9.768;2023-03-04T03:59:33;100347.72;;;5.89;52.18
38780;BME280;29273;49.962;9.768;2023-03-04T04:01:58;100336.56;;;5.87;52.21
38780;BME280;29273;49.962;9.768;2023-03-04T04:04:24;100333.25;;;5.85;52.39
38780;BME280;29273;49.962;9.768;2023-03-04T04:06:50;100335.72;;;5.87;52.05
38780;BME280;29273;49.962;9.768;2023-03-04T04:09:15;100337.69;;;5.85;52.09
38780;BME280;29273;49.962;9.768;2023-03-04T04:11:41;100330.63;;;5.85;52.06
38780;BME280;29273;49.962;9.768;2023-03-04T04:14:08;100331.94;;;5.89;52.16
38780;BME280;29273;49.962;9.768;2023-03-04T04:16:35;100338.38;;;5.87;51.95
38780;BME280;29273;49.962;9.768;2023-03-04T04:19:01;100334.91;;;5.86;52.08
38780;BME280;29273;49.962;9.768;2023-03-04T04:21:26;100336.84;;;5.84;51.90
38780;BME280;29273;49.962;9.768;2023-03-04T04:23:51;100333.25;;;5.85;52.06
38780;BME280;29273;49.962;9.768;2023-03-04T04:26:17;100331.59;;;5.84;51.89
38780;BME280;29273;49.962;9.768;2023-03-04T04:28:42;100335.06;;;5.85;51.81
38780;BME280;29273;49.962;9.768;2023-03-04T04:31:08;100329.81;;;5.85;51.65
38780;BME280;29273;49.962;9.768;2023-03-04T04:33:35;100325.38;;;5.85;51.73
38780;BME280;29273;49.962;9.768;2023-03-04T04:36:00;100335.06;;;5.85;51.70
38780;BME280;29273;49.962;9.768;2023-03-04T04:38:26;100331.59;;;5.84;51.42
38780;BME280;29273;49.962;9.768;2023-03-04T04:40:52;100327.19;;;5.85;51.02
38780;BME280;29273;49.962;9.768;2023-03-04T04:43:17;100330.78;;;5.84;50.96
38780;BME280;29273;49.962;9.768;2023-03-04T04:45:43;100336.03;;;5.84;50.98
38780;BME280;29273;49.962;9.768;2023-03-04T04:48:08;100345.75;;;5.83;50.80
38780;BME280;29273;49.962;9.768;2023-03-04T04:50:34;100325.53;;;5.84;50.82
38780;BME280;29273;49.962;9.768;2023-03-04T04:52:59;100333.56;;;5.82;50.28
38780;BME280;29273;49.962;9.768;2023-03-04T04:55:24;100341.63;;;5.81;50.52
38780;BME280;29273;49.962;9.768;2023-03-04T04:57:51;100332.75;;;5.82;50.65
38780;BME280;29273;49.962;9.768;2023-03-04T05:00:17;100334.88;;;5.78;50.29
38780;BME280;29273;49.962;9.768;2023-03-04T05:02:43;100335.84;;;5.77;50.39
38780;BME280;29273;49.962;9.768;2023-03-04T05:05:09;100346.38;;;5.77;50.31
38780;BME280;29273;49.962;9.768;2023-03-04T05:07:34;100345.56;;;5.77;50.57
38780;BME280;29273;49.962;9.768;2023-03-04T05:10:00;100337.81;;;5.75;50.50
38780;BME280;29273;49.962;9.768;2023-03-04T05:12:25;100339.63;;;5.74;50.41
38780;BME280;29273;49.962;9.768;2023-03-04T05:14:51;100342.41;;;5.73;50.27
38780;BME280;29273;49.962;9.768;2023-03-04T05:17:16;100339.94;;;5.71;50.31
38780;BME280;29273;49.962;9.768;2023-03-04T05:19:42;100346.00;;;5.72;50.34
38780;BME280;29273;49.962;9.768;2023-03-04T05:22:07;100340.91;;;5.70;50.33
38780;BME280;29273;49.962;9.768;2023-03-04T05:24:33;100337.47;;;5.70;50.21
38780;BME280;29273;49.962;9.768;2023-03-04T05:26:59;100337.47;;;5.70;50.44
38780;BME280;29273;49.962;9.768;2023-03-04T05:29:25;100341.72;;;5.71;50.49
38780;BME280;29273;49.962;9.768;2023-03-04T05:31:50;100333.19;;;5.69;50.75
38780;BME280;29273;49.962;9.768;2023-03-04T05:34:16;100335.00;;;5.68;50.30
38780;BME280;29273;49.962;9.768;2023-03-04T05:36:41;100335.81;;;5.69;50.53
38780;BME280;29273;49.962;9.768;2023-03-04T05:39:07;100332.38;;;5.68;50.77
38780;BME280;29273;49.962;9.768;2023-03-04T05:41:32;100339.09;;;5.71;50.50
38780;BME280;29273;49.962;9.768;2023-03-04T05:43:57;100330.25;;;5.72;50.47
38780;BME280;29273;49.962;9.768;2023-03-04T05:46:23;100335.50;;;5.72;50.61
38780;BME280;29273;49.962;9.768;2023-03-04T05:48:51;100333.69;;;5.72;50.49
38780;BME280;29273;49.962;9.768;2023-03-04T05:51:17;100335.34;;;5.73;50.29
38780;BME280;29273;49.962;9.768;2023-03-04T05:53:42;100340.44;;;5.75;50.48
38780;BME280;29273;49.962;9.768;2023-03-04T05:56:10;100341.09;;;5.77;50.57
38780;BME280;29273;49.962;9.768;2023-03-04T05:58:36;100347.34;;;5.76;50.40
38780;BME280;29273;49.962;9.768;2023-03-04T06:01:02;100351.63;;;5.77;50.50
38780;BME280;29273;49.962;9.768;2023-03-04T06:03:27;100349.81;;;5.78;50.32
38780;BME280;29273;49.962;9.768;2023-03-04T06:05:53;100354.91;;;5.79;50.68
38780;BME280;29273;49.962;9.768;2023-03-04T06:08:19;100354.09;;;5.79;50.78
38780;BME280;29273;49.962;9.768;2023-03-04T06:10:44;100361.00;;;5.80;50.58
38780;BME280;29273;49.962;9.768;2023-03-04T06:13:10;100350.34;;;5.81;50.41
38780;BME280;29273;49.962;9.768;2023-03-04T06:15:37;100358.88;;;5.83;50.48
38780;BME280;29273;49.962;9.768;2023-03-04T06:18:05;100363.16;;;5.84;50.54
38780;BME280;29273;49.962;9.768;2023-03-04T06:20:30;100357.72;;;5.86;50.56
38780;BME280;29273;49.962;9.768;2023-03-04T06:22:56;100352.47;;;5.86;50.58
38780;BME280;29273;49.962;9.768;2023-03-04T06:25:22;100369.59;;;5.90;50.50
38780;BME280;29273;49.962;9.768;2023-03-04T06:27:47;100361.56;;;5.91;50.45
38780;BME280;29273;49.962;9.768;2023-03-04T06:30:13;100370.09;;;5.93;50.43
38780;BME280;29273;49.962;9.768;2023-03-04T06:32:39;100378.00;;;5.93;50.26
38780;BME280;29273;49.962;9.768;2023-03-04T06:35:05;100373.38;;;5.96;50.33
38780;BME280;29273;49.962;9.768;2023-03-04T06:37:31;100378.53;;;5.97;50.32
38780;BME280;29273;49.962;9.768;2023-03-04T06:39:56;100376.72;;;5.98;50.25
38780;BME280;29273;49.962;9.768;2023-03-04T06:42:21;100382.97;;;5.97;50.37
38780;BME280;29273;49.962;9.768;2023-03-04T06:44:47;100385.28;;;6.00;50.38
38780;BME280;29273;49.962;9.768;2023-03-04T06:47:14;100383.47;;;6.00;50.31
38780;BME280;29273;49.962;9.768;2023-03-04T06:49:40;100385.78;;;6.03;50.26
38780;BME280;29273;49.962;9.768;2023-03-04T06:52:05;100387.41;;;6.04;50.44
38780;BME280;29273;49.962;9.768;2023-03-04T06:54:31;100386.44;;;6.05;50.32
38780;BME280;29273;49.962;9.768;2023-03-04T06:56:56;100392.38;;;6.07;50.29
38780;BME280;29273;49.962;9.768;2023-03-04T06:59:22;100384.47;;;6.07;50.23
38780;BME280;29273;49.962;9.768;2023-03-04T07:01:47;100390.41;;;6.09;50.19
38780;BME280;29273;49.962;9.768;2023-03-04T07:04:13;100387.75;;;6.09;50.19
38780;BME280;29273;49.962;9.768;2023-03-04T07:06:38;100394.53;;;6.12;50.20
38780;BME280;29273;49.962;9.768;2023-03-04T07:09:04;100390.78;;;6.15;50.19
38780;BME280;29273;49.962;9.768;2023-03-04T07:11:29;100388.97;;;6.15;50.33
38780;BME280;29273;49.962;9.768;2023-03-04T07:13:55;100385.50;;;6.15;50.00
38780;BME280;29273;49.962;9.768;2023-03-04T07:16:21;100394.06;;;6.17;49.98
38780;BME280;29273;49.962;9.768;2023-03-04T07:18:47;100396.53;;;6.18;50.21
38780;BME280;29273;49.962;9.768;2023-03-04T07:21:14;100398.16;;;6.19;50.53
38780;BME280;29273;49.962;9.768;2023-03-04T07:23:40;100399.66;;;6.22;50.02
38780;BME280;29273;49.962;9.768;2023-03-04T07:26:06;100400.31;;;6.24;50.04
38780;BME280;29273;49.962;9.768;2023-03-04T07:28:32;100408.72;;;6.27;50.09
38780;BME280;29273;49.962;9.768;2023-03-04T07:31:07;100400.34;;;6.32;50.39
38780;BME280;29273;49.962;9.768;2023-03-04T07:33:33;100409.41;;;6.29;50.05
38780;BME280;29273;49.962;9.768;2023-03-04T07:35:59;100412.69;;;6.32;50.11
38780;BME280;29273;49.962;9.768;2023-03-04T07:38:24;100410.88;;;6.32;50.09
38780;BME280;29273;49.962;9.768;2023-03-04T07:40:57;100407.47;;;6.40;50.60
38780;BME280;29273;49.962;9.768;2023-03-04T07:43:23;100407.78;;;6.37;50.02
38780;BME280;29273;49.962;9.768;2023-03-04T07:45:48;100409.41;;;6.38;50.02
38780;BME280;29273;49.962;9.768;2023-03-04T07:48:14;100410.75;;;6.42;49.96
38780;BME280;29273;49.962;9.768;2023-03-04T07:50:39;100412.22;;;6.44;49.87
38780;BME280;29273;49.962;9.768;2023-03-04T07:53:05;100409.44;;;6.46;49.90
38780;BME280;29273;49.962;9.768;2023-03-04T07:55:30;100411.75;;;6.49;49.71
38780;BME280;29273;49.962;9.768;2023-03-04T07:57:56;100414.22;;;6.51;49.61
38780;BME280;29273;49.962;9.768;2023-03-04T08:00:22;100413.91;;;6.54;49.39
38780;BME280;29273;49.962;9.768;2023-03-04T08:02:48;100412.78;;;6.56;49.60
38780;BME280;29273;49.962;9.768;2023-03-04T08:05:13;100412.78;;;6.56;49.77
38780;BME280;29273;49.962;9.768;2023-03-04T08:07:38;100418.69;;;6.58;49.62
38780;BME280;29273;49.962;9.768;2023-03-04T08:10:04;100414.09;;;6.60;49.34
38780;BME280;29273;49.962;9.768;2023-03-04T08:12:30;100419.19;;;6.62;49.52
38780;BME280;29273;49.962;9.768;2023-03-04T08:14:55;100416.41;;;6.63;49.53
38780;BME280;29273;49.962;9.768;2023-03-04T08:17:21;100417.88;;;6.66;49.28
38780;BME280;29273;49.962;9.768;2023-03-04T08:19:46;100417.72;;;6.67;49.39
38780;BME280;29273;49.962;9.768;2023-03-04T08:22:12;100419.38;;;6.69;49.55
38780;BME280;29273;49.962;9.768;2023-03-04T08:24:37;100419.88;;;6.72;49.56
38780;BME280;29273;49.962;9.768;2023-03-04T08:27:03;100429.44;;;6.73;49.48
38780;BME280;29273;49.962;9.768;2023-03-04T08:29:28;100425.78;;;6.74;49.55
38780;BME280;29273;49.962;9.768;2023-03-04T08:31:54;100422.84;;;6.77;49.58
38780;BME280;29273;49.962;9.768;2023-03-04T08:34:22;100430.25;;;6.82;49.95
38780;BME280;29273;49.962;9.768;2023-03-04T08:36:48;100425.97;;;6.81;49.18
38780;BME280;29273;49.962;9.768;2023-03-04T08:39:15;100435.22;;;6.85;50.03
38780;BME280;29273;49.962;9.768;2023-03-04T08:41:41;100431.56;;;6.86;49.48
38780;BME280;29273;49.962;9.768;2023-03-04T08:44:07;100430.44;;;6.89;49.42
38780;BME280;29273;49.962;9.768;2023-03-04T08:46:36;100431.75;;;6.93;49.28
38780;BME280;29273;49.962;9.768;2023-03-04T08:49:01;100430.78;;;6.94;49.55
38780;BME280;29273;49.962;9.768;2023-03-04T08:51:27;100419.91;;;6.97;49.66
38780;BME280;29273;49.962;9.768;2023-03-04T08:53:52;100426.84;;;6.98;49.65
38780;BME280;29273;49.962;9.768;2023-03-04T08:56:18;100427.34;;;7.01;49.64
38780;BME280;29273;49.962;9.768;2023-03-04T08:58:43;100422.72;;;7.03;49.54
38780;BME280;29273;49.962;9.768;2023-03-04T09:01:11;100434.41;;;7.09;49.44
38780;BME280;29273;49.962;9.768;2023-03-04T09:03:37;100429.97;;;7.10;49.33
38780;BME280;29273;49.962;9.768;2023-03-04T09:06:03;100428.66;;;7.14;49.53
38780;BME280;29273;49.962;9.768;2023-03-04T09:08:29;100420.59;;;7.15;49.29
38780;BME280;29273;49.962;9.768;2023-03-04T09:10:55;100423.88;;;7.17;49.07
38780;BME280;29273;49.962;9.768;2023-03-04T09:13:22;100424.38;;;7.21;49.34
38780;BME280;29273;49.962;9.768;2023-03-04T09:15:49;100424.03;;;7.24;48.79
38780;BME280;29273;49.962;9.768;2023-03-04T09:18:15;100426.50;;;7.26;49.11
38780;BME280;29273;49.962;9.768;2023-03-04T09:20:42;100423.72;;;7.27;49.21
38780;BME280;29273;49.962;9.768;2023-03-04T09:23:08;100429.63;;;7.29;49.19
38780;BME280;29273;49.962;9.768;2023-03-04T09:25:35;100431.13;;;7.32;49.06
38780;BME280;29273;49.962;9.768;2023-03-04T09:28:01;100422.06;;;7.34;49.14
38780;BME280;29273;49.962;9.768;2023-03-04T09:30:27;100425.38;;;7.36;49.05
38780;BME280;29273;49.962;9.768;2023-03-04T09:32:52;100423.22;;;7.40;49.21
38780;BME280;29273;49.962;9.768;2023-03-04T09:35:18;100420.44;;;7.41;49.06
38780;BME280;29273;49.962;9.768;2023-03-04T09:37:43;100413.00;;;7.45;49.08
38780;BME280;29273;49.962;9.768;2023-03-04T09:40:38;100418.59;;;7.50;50.29
38780;BME280;29273;49.962;9.768;2023-03-04T09:43:11;100416.94;;;7.57;49.96
38780;BME280;29273;49.962;9.768;2023-03-04T09:45:42;100413.97;;;7.60;49.79
38780;BME280;29273;49.962;9.768;2023-03-04T09:48:15;100424.03;;;7.65;49.86
38780;BME280;29273;49.962;9.768;2023-03-04T09:50:52;100429.63;;;7.70;49.83
38780;BME280;29273;49.962;9.768;2023-03-04T09:56:21;100424.19;;;7.72;48.89
38780;BME280;29273;49.962;9.768;2023-03-04T10:01:24;100416.09;;;7.82;49.22
38780;BME280;29273;49.962;9.768;2023-03-04T10:03:57;100417.22;;;7.87;49.45
38780;BME280;29273;49.962;9.768;2023-03-04T10:06:35;100419.53;;;7.82;47.74
38780;BME280;29273;49.962;9.768;2023-03-04T10:09:03;100404.72;;;7.89;50.34
38780;BME280;29273;49.962;9.768;2023-03-04T10:12:00;100405.84;;;7.87;49.40
38780;BME280;29273;49.962;9.768;2023-03-04T10:14:37;100404.34;;;7.92;49.52
38780;BME280;29273;49.962;9.768;2023-03-04T10:17:20;100408.63;;;7.93;49.61
38780;BME280;29273;49.962;9.768;2023-03-04T10:20:11;100403.19;;;7.95;49.07
38780;BME280;29273;49.962;9.768;2023-03-04T10:22:48;100403.84;;;7.97;49.70
38780;BME280;29273;49.962;9.768;2023-03-04T10:25:22;100406.13;;;8.00;49.56
38780;BME280;29273;49.962;9.768;2023-03-04T10:27:58;100396.41;;;8.01;49.41
38780;BME280;29273;49.962;9.768;2023-03-04T10:33:12;100393.75;;;8.01;48.29
38780;BME280;29273;49.962;9.768;2023-03-04T10:35:38;100404.31;;;8.01;47.89
38780;BME280;29273;49.962;9.768;2023-03-04T10:38:08;100397.25;;;8.01;47.38
38780;BME280;29273;49.962;9.768;2023-03-04T10:40:38;100402.84;;;8.06;48.01
38780;BME280;29273;49.962;9.768;2023-03-04T10:43:04;100398.72;;;8.04;47.36
38780;BME280;29273;49.962;9.768;2023-03-04T10:45:37;100400.66;;;8.10;47.86
38780;BME280;29273;49.962;9.768;2023-03-04T10:48:03;100401.19;;;8.05;47.27
38780;BME280;29273;49.962;9.768;2023-03-04T10:50:28;100405.47;;;8.06;47.84
38780;BME280;29273;49.962;9.768;2023-03-04T10:52:55;100406.13;;;8.08;48.16
38780;BME280;29273;49.962;9.768;2023-03-04T10:55:29;100399.50;;;8.12;48.87
38780;BME280;29273;49.962;9.768;2023-03-04T10:58:03;100397.53;;;8.14;48.79
38780;BME280;29273;49.962;9.768;2023-03-04T11:00:34;100397.69;;;8.13;48.10
38780;BME280;29273;49.962;9.768;2023-03-04T11:06:03;100392.09;;;8.16;48.98
38780;BME280;29273;49.962;9.768;2023-03-04T11:08:29;100392.41;;;8.13;47.87
38780;BME280;29273;49.962;9.768;2023-03-04T11:10:54;100382.84;;;8.12;47.84
38780;BME280;29273;49.962;9.768;2023-03-04T11:13:24;100380.69;;;8.15;48.09
38780;BME280;29273;49.962;9.768;2023-03-04T11:15:51;100372.78;;;8.15;47.82
38780;BME280;29273;49.962;9.768;2023-03-04T11:18:22;100383.78;;;8.19;48.02
38780;BME280;29273;49.962;9.768;2023-03-04T11:20:51;100376.91;;;8.18;47.65
38780;BME280;29273;49.962;9.768;2023-03-04T11:23:38;100370.09;;;8.24;48.34
38780;BME280;29273;49.962;9.768;2023-03-04T11:26:15;100367.47;;;8.24;48.97
38780;BME280;29273;49.962;9.768;2023-03-04T11:28:51;100363.84;;;8.25;48.70
38780;BME280;29273;49.962;9.768;2023-03-04T11:31:38;100364.81;;;8.24;49.02
38780;BME280;29273;49.962;9.768;2023-03-04T11:37:00;100361.84;;;8.27;48.44
38780;BME280;29273;49.962;9.768;2023-03-04T11:39:54;100353.59;;;8.30;49.07
38780;BME280;29273;49.962;9.768;2023-03-04T11:45:12;100352.06;;;8.36;48.98
38780;BME280;29273;49.962;9.768;2023-03-04T11:50:50;100341.97;;;8.39;49.40
38780;BME280;29273;49.962;9.768;2023-03-04T12:06:34;100330.00;;;8.60;47.36
38780;BME280;29273;49.962;9.768;2023-03-04T12:09:31;100336.22;;;8.67;48.71
38780;BME280;29273;49.962;9.768;2023-03-04T12:12:20;100332.41;;;8.69;48.62
38780;BME280;29273;49.962;9.768;2023-03-04T12:20:55;100326.41;;;8.76;48.32
38780;BME280;29273;49.962;9.768;2023-03-04T12:26:50;100317.22;;;8.72;48.89
38780;BME280;29273;49.962;9.768;2023-03-04T12:29:28;100312.41;;;8.75;48.17
38780;BME280;29273;49.962;9.768;2023-03-04T12:32:20;100312.56;;;8.74;48.46
38780;BME280;29273;49.962;9.768;2023-03-04T12:35:19;100312.22;;;8.77;48.28
38780;BME280;29273;49.962;9.768;2023-03-04T12:43:59;100310.22;;;8.79;47.87
38780;BME280;29273;49.962;9.768;2023-03-04T12:46:49;100301.47;;;8.78;48.83
38780;BME280;29273;49.962;9.768;2023-03-04T12:54:46;100301.75;;;8.83;47.67
38780;BME280;29273;49.962;9.768;2023-03-04T12:57:20;100292.84;;;8.84;46.91
38780;BME280;29273;49.962;9.768;2023-03-04T13:00:05;100285.56;;;8.86;47.87
38780;BME280;29273;49.962;9.768;2023-03-04T13:05:15;100280.09;;;8.88;47.91
38780;BME280;29273;49.962;9.768;2023-03-04T13:10:29;100265.25;;;8.87;46.49
38780;BME280;29273;49.962;9.768;2023-03-04T13:12:57;100263.72;;;8.93;47.25
38780;BME280;29273;49.962;9.768;2023-03-04T13:17:54;100255.69;;;9.01;47.76
38780;BME280;29273;49.962;9.768;2023-03-04T13:23:22;100256.38;;;9.03;48.62
38780;BME280;29273;49.962;9.768;2023-03-04T13:26:15;100253.81;;;9.10;48.58
38780;BME280;29273;49.962;9.768;2023-03-04T13:28:42;100250.16;;;9.11;46.76
38780;BME280;29273;49.962;9.768;2023-03-04T13:41:13;100237.59;;;9.28;46.76
38780;BME280;29273;49.962;9.768;2023-03-04T13:53:43;100213.53;;;9.37;46.62
38780;BME280;29273;49.962;9.768;2023-03-04T13:56:18;100218.09;;;9.43;47.61
38780;BME280;29273;49.962;9.768;2023-03-04T13:58:47;100218.88;;;9.44;46.97
38780;BME280;29273;49.962;9.768;2023-03-04T14:01:24;100222.81;;;9.48;47.96
38780;BME280;29273;49.962;9.768;2023-03-04T14:03:49;100213.78;;;9.42;45.97
38780;BME280;29273;49.962;9.768;2023-03-04T14:06:19;100217.91;;;9.45;46.17
38780;BME280;29273;49.962;9.768;2023-03-04T14:08:46;100215.88;;;9.47;46.40
38780;BME280;29273;49.962;9.768;2023-03-04T14:11:34;100211.44;;;9.48;47.84
38780;BME280;29273;49.962;9.768;2023-03-04T14:14:09;100215.53;;;9.50;46.86
38780;BME280;29273;49.962;9.768;2023-03-04T14:16:48;100211.03;;;9.51;47.59
38780;BME280;29273;49.962;9.768;2023-03-04T14:19:25;100203.28;;;9.49;47.66
38780;BME280;29273;49.962;9.768;2023-03-04T14:21:51;100199.75;;;9.42;45.78
38780;BME280;29273;49.962;9.768;2023-03-04T14:24:18;100203.22;;;9.42;45.87
38780;BME280;29273;49.962;9.768;2023-03-04T14:26:45;100192.84;;;9.41;46.07
38780;BME280;29273;49.962;9.768;2023-03-04T14:29:25;100199.41;;;9.45;47.21
38780;BME280;29273;49.962;9.768;2023-03-04T14:31:52;100199.31;;;9.38;46.56
38780;BME280;29273;49.962;9.768;2023-03-04T14:34:33;100193.84;;;9.40;47.08